createdAt,value
2023-03-22T00:00:13.446Z,0.00
2023-03-22T00:01:13.471Z,0.00
2023-03-22T00:02:13.477Z,0.00
2023-03-22T00:03:13.454Z,0.00
2023-03-22T00:04:13.561Z,0.00
2023-03-22T00:05:13.402Z,0.00
2023-03-22T00:06:13.403Z,0.00
2023-03-22T00:07:13.361Z,0.00
2023-03-22T00:08:13.360Z,0.00
2023-03-22T00:09:13.350Z,0.00
2023-03-22T00:10:13.347Z,0.00
2023-03-22T00:11:13.334Z,0.00
2023-03-22T00:12:13.284Z,0.00
2023-03-22T00:13:13.297Z,0.00
2023-03-22T00:14:13.304Z,0.00
2023-03-22T00:15:13.302Z,0.00
2023-03-22T00:16:13.329Z,0.00
2023-03-22T00:17:13.271Z,0.00
2023-03-22T00:18:13.282Z,0.00
2023-03-22T00:19:13.250Z,0.00
2023-03-22T00:20:13.212Z,0.00
2023-03-22T00:21:13.197Z,0.00
2023-03-22T00:22:13.212Z,0.00
2023-03-22T00:23:13.200Z,0.00
2023-03-22T00:24:13.177Z,0.00
2023-03-22T00:25:14.246Z,0.00
2023-03-22T00:26:13.137Z,0.00
2023-03-22T00:27:13.140Z,0.00
2023-03-22T00:28:13.149Z,0.00
2023-03-22T00:29:13.146Z,0.00
2023-03-22T00:30:13.127Z,0.00
2023-03-22T00:31:13.184Z,0.00
2023-03-22T00:32:13.066Z,0.00
2023-03-22T00:33:13.090Z,0.00
2023-03-22T00:34:13.095Z,0.00
2023-03-22T00:35:13.061Z,0.00
2023-03-22T00:36:13.069Z,0.00
2023-03-22T00:37:13.043Z,0.00
2023-03-22T00:38:13.033Z,0.00
2023-03-22T00:39:13.017Z,0.00
2023-03-22T00:40:12.989Z,0.00
2023-03-22T00:41:13.005Z,0.00
2023-03-22T00:42:12.989Z,0.00
2023-03-22T00:43:12.959Z,0.00
2023-03-22T00:44:13.011Z,0.00
2023-03-22T00:45:12.969Z,0.00
2023-03-22T00:46:13.008Z,0.00
2023-03-22T00:47:12.914Z,0.00
2023-03-22T00:48:12.966Z,0.00
2023-03-22T00:49:12.912Z,0.00
2023-03-22T00:50:12.865Z,0.00
2023-03-22T00:51:12.928Z,0.00
2023-03-22T00:52:12.862Z,0.00
2023-03-22T00:53:12.879Z,0.00
2023-03-22T00:54:12.876Z,0.00
2023-03-22T00:55:12.839Z,0.00
2023-03-22T00:56:12.832Z,0.00
2023-03-22T00:57:12.827Z,0.00
2023-03-22T00:58:12.815Z,0.00
2023-03-22T00:59:12.838Z,0.00
2023-03-22T01:00:12.815Z,0.00
2023-03-22T01:01:12.869Z,0.00
2023-03-22T01:02:12.839Z,0.00
2023-03-22T01:03:12.773Z,0.00
2023-03-22T01:04:12.754Z,0.00
2023-03-22T01:05:12.718Z,0.00
2023-03-22T01:06:12.759Z,0.00
2023-03-22T01:07:12.697Z,0.00
2023-03-22T01:08:12.668Z,0.00
2023-03-22T01:09:12.702Z,0.00
2023-03-22T01:10:12.664Z,0.00
2023-03-22T01:11:12.694Z,0.00
2023-03-22T01:12:12.682Z,0.00
2023-03-22T01:13:12.636Z,0.00
2023-03-22T01:14:12.628Z,0.00
2023-03-22T01:15:12.634Z,0.00
2023-03-22T01:16:12.772Z,0.00
2023-03-22T01:17:12.583Z,0.00
2023-03-22T01:18:12.598Z,0.00
2023-03-22T01:19:12.638Z,0.00
2023-03-22T01:20:12.555Z,0.00
2023-03-22T01:21:12.634Z,0.00
2023-03-22T01:22:12.569Z,0.00
2023-03-22T01:23:13.552Z,0.00
2023-03-22T01:24:12.539Z,0.00
2023-03-22T01:25:12.518Z,0.00
2023-03-22T01:26:12.537Z,0.00
2023-03-22T01:27:12.477Z,0.00
2023-03-22T01:28:12.492Z,0.00
2023-03-22T01:29:12.455Z,0.00
2023-03-22T01:30:12.497Z,0.00
2023-03-22T01:31:12.485Z,0.00
2023-03-22T01:32:12.420Z,0.00
2023-03-22T01:33:12.391Z,0.00
2023-03-22T01:34:12.463Z,0.00
2023-03-22T01:35:12.419Z,0.00
2023-03-22T01:36:12.454Z,0.00
2023-03-22T01:37:12.392Z,0.00
2023-03-22T01:38:12.356Z,0.00
2023-03-22T01:39:12.382Z,0.00
2023-03-22T01:40:12.347Z,0.00
2023-03-22T01:41:12.367Z,0.00
2023-03-22T01:42:12.342Z,0.00
2023-03-22T01:43:12.298Z,0.00
2023-03-22T01:44:12.339Z,0.00
2023-03-22T01:45:12.359Z,0.00
2023-03-22T01:46:12.432Z,0.00
2023-03-22T01:47:12.243Z,0.00
2023-03-22T01:48:12.374Z,0.00
2023-03-22T01:49:12.384Z,0.00
2023-03-22T01:50:12.253Z,0.00
2023-03-22T01:51:12.925Z,0.00
2023-03-22T01:52:12.213Z,0.00
2023-03-22T01:53:12.219Z,0.00
2023-03-22T01:54:12.206Z,0.00
2023-03-22T01:55:12.192Z,0.00
2023-03-22T01:56:13.188Z,0.00
2023-03-22T01:57:12.156Z,0.00
2023-03-22T01:58:12.192Z,0.00
2023-03-22T01:59:12.136Z,0.00
2023-03-22T02:00:12.169Z,0.00
2023-03-22T02:01:12.187Z,0.00
2023-03-22T02:02:12.109Z,0.00
2023-03-22T02:03:12.028Z,0.00
2023-03-22T02:04:12.136Z,0.00
2023-03-22T02:05:12.067Z,0.00
2023-03-22T02:06:12.090Z,0.00
2023-03-22T02:07:12.082Z,0.00
2023-03-22T02:08:12.041Z,0.00
2023-03-22T02:09:12.092Z,0.00
2023-03-22T02:10:12.023Z,0.00
2023-03-22T02:11:12.077Z,0.00
2023-03-22T02:12:11.984Z,0.00
2023-03-22T02:13:12.079Z,0.00
2023-03-22T02:14:12.012Z,0.00
2023-03-22T02:15:11.984Z,0.00
2023-03-22T02:16:11.951Z,0.00
2023-03-22T02:17:11.882Z,0.00
2023-03-22T02:18:11.948Z,0.00
2023-03-22T02:19:11.921Z,0.00
2023-03-22T02:20:11.886Z,0.00
2023-03-22T02:21:11.864Z,0.00
2023-03-22T02:22:11.911Z,0.00
2023-03-22T02:23:11.834Z,0.00
2023-03-22T02:24:11.811Z,0.00
2023-03-22T02:25:11.797Z,0.00
2023-03-22T02:26:11.861Z,0.00
2023-03-22T02:27:11.775Z,0.00
2023-03-22T02:28:11.773Z,0.00
2023-03-22T02:29:11.775Z,0.00
2023-03-22T02:30:11.758Z,0.00
2023-03-22T02:31:11.776Z,0.00
2023-03-22T02:32:12.762Z,0.00
2023-03-22T02:33:11.700Z,0.00
2023-03-22T02:34:11.758Z,0.00
2023-03-22T02:35:12.365Z,0.00
2023-03-22T02:36:11.708Z,0.00
2023-03-22T02:37:11.682Z,0.00
2023-03-22T02:38:11.656Z,0.00
2023-03-22T02:39:11.632Z,0.00
2023-03-22T02:40:11.624Z,0.00
2023-03-22T02:41:11.637Z,0.00
2023-03-22T02:42:11.603Z,0.00
2023-03-22T02:43:11.706Z,0.00
2023-03-22T02:44:11.578Z,0.00
2023-03-22T02:45:11.596Z,0.00
2023-03-22T02:46:11.567Z,0.00
2023-03-22T02:47:11.564Z,0.00
2023-03-22T02:48:11.577Z,0.00
2023-03-22T02:49:11.523Z,0.00
2023-03-22T02:50:11.507Z,0.00
2023-03-22T02:51:11.508Z,0.00
2023-03-22T02:52:11.510Z,0.00
2023-03-22T02:53:11.496Z,0.00
2023-03-22T02:54:11.487Z,0.00
2023-03-22T02:55:11.480Z,0.00
2023-03-22T02:56:11.483Z,0.00
2023-03-22T02:57:11.472Z,0.00
2023-03-22T02:58:11.423Z,0.00
2023-03-22T02:59:11.520Z,0.00
2023-03-22T03:00:11.409Z,0.00
2023-03-22T03:01:11.452Z,0.00
2023-03-22T03:02:11.489Z,0.00
2023-03-22T03:03:11.547Z,0.00
2023-03-22T03:04:11.386Z,0.00
2023-03-22T03:05:11.342Z,0.00
2023-03-22T03:06:11.322Z,0.00
2023-03-22T03:07:11.365Z,0.00
2023-03-22T03:08:11.316Z,0.00
2023-03-22T03:09:11.297Z,0.00
2023-03-22T03:10:11.322Z,0.00
2023-03-22T03:11:11.264Z,0.00
2023-03-22T03:12:11.289Z,0.00
2023-03-22T03:13:11.261Z,0.00
2023-03-22T03:14:11.229Z,0.00
2023-03-22T03:15:11.313Z,0.00
2023-03-22T03:16:11.286Z,0.00
2023-03-22T03:17:11.205Z,0.00
2023-03-22T03:18:11.223Z,0.00
2023-03-22T03:19:11.203Z,0.00
2023-03-22T03:20:11.215Z,0.00
2023-03-22T03:21:11.199Z,0.00
2023-03-22T03:22:11.180Z,0.00
2023-03-22T03:23:11.160Z,0.00
2023-03-22T03:24:11.133Z,0.00
2023-03-22T03:25:11.120Z,0.00
2023-03-22T03:26:11.132Z,0.00
2023-03-22T03:27:11.240Z,0.00
2023-03-22T03:28:11.109Z,0.00
2023-03-22T03:29:11.083Z,0.00
2023-03-22T03:30:11.105Z,0.00
2023-03-22T03:31:11.091Z,0.00
2023-03-22T03:32:11.080Z,0.00
2023-03-22T03:33:11.073Z,0.00
2023-03-22T03:34:11.070Z,0.00
2023-03-22T03:35:11.056Z,0.00
2023-03-22T03:36:10.989Z,0.00
2023-03-22T03:37:11.015Z,0.00
2023-03-22T03:38:11.020Z,0.00
2023-03-22T03:39:10.969Z,0.00
2023-03-22T03:40:11.024Z,0.00
2023-03-22T03:41:10.939Z,0.00
2023-03-22T03:42:10.936Z,0.00
2023-03-22T03:43:10.956Z,0.00
2023-03-22T03:44:10.936Z,0.00
2023-03-22T03:45:10.927Z,0.00
2023-03-22T03:46:10.907Z,0.00
2023-03-22T03:47:10.889Z,0.00
2023-03-22T03:48:10.889Z,0.00
2023-03-22T03:49:10.865Z,0.00
2023-03-22T03:50:10.858Z,0.00
2023-03-22T03:51:10.845Z,0.00
2023-03-22T03:52:10.856Z,0.00
2023-03-22T03:53:10.880Z,0.00
2023-03-22T03:54:10.832Z,0.00
2023-03-22T03:55:10.795Z,0.00
2023-03-22T03:56:10.814Z,0.00
2023-03-22T03:57:10.831Z,0.00
2023-03-22T03:58:10.755Z,0.00
2023-03-22T03:59:10.784Z,0.00
2023-03-22T04:00:10.889Z,0.00
2023-03-22T04:01:10.791Z,0.00
2023-03-22T04:02:10.835Z,0.00
2023-03-22T04:03:10.770Z,0.00
2023-03-22T04:04:10.833Z,0.00
2023-03-22T04:05:10.743Z,0.00
2023-03-22T04:06:11.710Z,0.00
2023-03-22T04:07:10.740Z,0.00
2023-03-22T04:08:10.713Z,0.00
2023-03-22T04:09:10.709Z,0.00
2023-03-22T04:10:10.690Z,0.00
2023-03-22T04:11:10.795Z,0.00
2023-03-22T04:12:10.658Z,0.00
2023-03-22T04:13:10.765Z,0.00
2023-03-22T04:14:10.627Z,0.00
2023-03-22T04:15:10.922Z,0.00
2023-03-22T04:16:10.633Z,0.00
2023-03-22T04:17:11.269Z,0.00
2023-03-22T04:18:10.659Z,0.00
2023-03-22T04:19:10.598Z,0.00
2023-03-22T04:20:10.593Z,0.00
2023-03-22T04:21:10.657Z,0.00
2023-03-22T04:22:10.592Z,0.00
2023-03-22T04:23:10.528Z,0.00
2023-03-22T04:24:10.553Z,0.00
2023-03-22T04:25:10.535Z,0.00
2023-03-22T04:26:10.517Z,0.00
2023-03-22T04:27:10.498Z,0.00
2023-03-22T04:28:10.520Z,0.00
2023-03-22T04:29:10.510Z,0.00
2023-03-22T04:30:10.518Z,0.00
2023-03-22T04:31:10.680Z,0.00
2023-03-22T04:32:10.441Z,0.00
2023-03-22T04:33:10.427Z,0.00
2023-03-22T04:34:10.441Z,0.00
2023-03-22T04:35:10.443Z,0.00
2023-03-22T04:36:10.427Z,0.00
2023-03-22T04:37:10.388Z,0.00
2023-03-22T04:38:10.408Z,0.00
2023-03-22T04:39:10.419Z,0.00
2023-03-22T04:40:10.364Z,0.00
2023-03-22T04:41:10.303Z,0.00
2023-03-22T04:42:10.368Z,0.00
2023-03-22T04:43:13.291Z,0.00
2023-03-22T04:44:10.312Z,0.00
2023-03-22T04:45:10.280Z,0.00
2023-03-22T04:46:10.387Z,0.00
2023-03-22T04:47:10.304Z,0.00
2023-03-22T04:48:10.316Z,0.00
2023-03-22T04:49:10.255Z,0.00
2023-03-22T04:50:10.267Z,0.00
2023-03-22T04:51:10.232Z,0.00
2023-03-22T04:52:10.259Z,0.00
2023-03-22T04:53:10.203Z,0.00
2023-03-22T04:54:10.204Z,0.00
2023-03-22T04:55:10.292Z,0.00
2023-03-22T04:56:10.372Z,0.00
2023-03-22T04:57:10.155Z,0.00
2023-03-22T04:58:10.289Z,0.00
2023-03-22T04:59:10.159Z,0.00
2023-03-22T05:00:10.119Z,0.00
2023-03-22T05:01:10.141Z,0.00
2023-03-22T05:02:10.750Z,0.00
2023-03-22T05:03:10.187Z,0.00
2023-03-22T05:04:10.132Z,0.00
2023-03-22T05:05:10.107Z,0.00
2023-03-22T05:06:10.048Z,0.00
2023-03-22T05:07:10.011Z,0.00
2023-03-22T05:08:09.972Z,0.00
2023-03-22T05:09:10.384Z,0.00
2023-03-22T05:10:09.993Z,0.00
2023-03-22T05:11:09.952Z,0.00
2023-03-22T05:12:10.005Z,0.00
2023-03-22T05:13:09.935Z,0.00
2023-03-22T05:14:09.992Z,0.00
2023-03-22T05:15:09.903Z,0.00
2023-03-22T05:16:10.109Z,0.00
2023-03-22T05:17:09.906Z,0.00
2023-03-22T05:18:09.861Z,0.00
2023-03-22T05:19:09.855Z,0.00
2023-03-22T05:20:09.900Z,0.00
2023-03-22T05:21:09.831Z,5.62
2023-03-22T05:22:09.825Z,5.62
2023-03-22T05:23:09.817Z,5.62
2023-03-22T05:24:09.820Z,5.62
2023-03-22T05:25:09.816Z,5.62
2023-03-22T05:26:09.817Z,5.62
2023-03-22T05:27:09.786Z,11.25
2023-03-22T05:28:09.776Z,11.25
2023-03-22T05:29:09.760Z,11.25
2023-03-22T05:30:09.796Z,16.88
2023-03-22T05:31:09.777Z,16.88
2023-03-22T05:32:09.751Z,16.88
2023-03-22T05:33:09.692Z,16.88
2023-03-22T05:34:09.717Z,22.50
2023-03-22T05:35:09.697Z,22.50
2023-03-22T05:36:10.341Z,22.50
2023-03-22T05:37:09.685Z,22.50
2023-03-22T05:38:10.256Z,22.50
2023-03-22T05:39:09.649Z,28.12
2023-03-22T05:40:09.622Z,28.12
2023-03-22T05:41:09.678Z,28.12
2023-03-22T05:42:09.611Z,33.75
2023-03-22T05:43:09.620Z,33.75
2023-03-22T05:44:09.643Z,33.75
2023-03-22T05:45:09.644Z,39.38
2023-03-22T05:46:09.587Z,39.38
2023-03-22T05:47:09.592Z,45.00
2023-03-22T05:48:09.657Z,45.00
2023-03-22T05:49:11.714Z,45.00
2023-03-22T05:50:09.529Z,45.00
2023-03-22T05:51:09.526Z,45.00
2023-03-22T05:52:09.489Z,50.62
2023-03-22T05:53:09.530Z,56.25
2023-03-22T05:54:10.369Z,61.88
2023-03-22T05:55:10.272Z,61.88
2023-03-22T05:56:09.592Z,67.50
2023-03-22T05:57:09.480Z,67.50
2023-03-22T05:58:09.473Z,67.50
2023-03-22T05:59:09.474Z,56.25
2023-03-22T06:00:09.396Z,50.62
2023-03-22T06:01:09.507Z,56.25
2023-03-22T06:02:09.559Z,56.25
2023-03-22T06:03:09.423Z,56.25
2023-03-22T06:04:09.419Z,56.25
2023-03-22T06:05:09.366Z,56.25
2023-03-22T06:06:10.290Z,67.50
2023-03-22T06:07:09.354Z,78.75
2023-03-22T06:08:09.341Z,84.38
2023-03-22T06:09:16.726Z,78.75
2023-03-22T06:10:11.345Z,78.75
2023-03-22T06:11:09.296Z,73.12
2023-03-22T06:12:09.302Z,73.12
2023-03-22T06:13:09.843Z,67.50
2023-03-22T06:14:09.274Z,61.88
2023-03-22T06:15:09.272Z,61.88
2023-03-22T06:16:09.299Z,67.50
2023-03-22T06:17:09.240Z,67.50
2023-03-22T06:18:09.219Z,73.12
2023-03-22T06:19:09.237Z,73.12
2023-03-22T06:20:09.204Z,67.50
2023-03-22T06:21:09.245Z,67.50
2023-03-22T06:22:09.171Z,78.75
2023-03-22T06:23:09.180Z,84.38
2023-03-22T06:24:09.207Z,101.25
2023-03-22T06:25:09.150Z,106.88
2023-03-22T06:26:09.139Z,191.25
2023-03-22T06:27:09.149Z,140.62
2023-03-22T06:28:09.165Z,112.50
2023-03-22T06:29:09.087Z,90.00
2023-03-22T06:30:09.152Z,90.00
2023-03-22T06:31:09.256Z,78.75
2023-03-22T06:32:09.043Z,73.12
2023-03-22T06:33:09.050Z,61.88
2023-03-22T06:34:09.027Z,73.12
2023-03-22T06:35:09.025Z,78.75
2023-03-22T06:36:09.036Z,84.38
2023-03-22T06:37:08.979Z,84.38
2023-03-22T06:38:08.983Z,84.38
2023-03-22T06:39:08.973Z,101.25
2023-03-22T06:40:08.970Z,106.88
2023-03-22T06:41:08.955Z,101.25
2023-03-22T06:42:08.931Z,112.50
2023-03-22T06:43:08.924Z,95.62
2023-03-22T06:44:08.903Z,95.62
2023-03-22T06:45:09.047Z,106.88
2023-03-22T06:46:09.013Z,112.50
2023-03-22T06:47:08.894Z,129.38
2023-03-22T06:48:08.896Z,140.62
2023-03-22T06:49:08.878Z,140.62
2023-03-22T06:50:08.830Z,135.00
2023-03-22T06:51:08.859Z,135.00
2023-03-22T06:52:08.822Z,163.12
2023-03-22T06:53:08.863Z,163.12
2023-03-22T06:54:08.815Z,157.50
2023-03-22T06:55:08.935Z,146.25
2023-03-22T06:56:08.816Z,140.62
2023-03-22T06:57:08.791Z,140.62
2023-03-22T06:58:08.733Z,146.25
2023-03-22T06:59:08.755Z,140.62
2023-03-22T07:00:08.756Z,146.25
2023-03-22T07:01:08.735Z,146.25
2023-03-22T07:02:08.687Z,157.50
2023-03-22T07:03:08.753Z,163.12
2023-03-22T07:04:08.730Z,168.75
2023-03-22T07:05:08.676Z,174.38
2023-03-22T07:06:08.683Z,180.00
2023-03-22T07:07:08.662Z,180.00
2023-03-22T07:08:08.649Z,185.62
2023-03-22T07:09:08.657Z,208.12
2023-03-22T07:10:08.630Z,225.00
2023-03-22T07:11:08.614Z,236.25
2023-03-22T07:12:08.636Z,264.38
2023-03-22T07:13:08.615Z,275.62
2023-03-22T07:14:09.615Z,286.88
2023-03-22T07:15:08.549Z,331.88
2023-03-22T07:16:08.648Z,354.38
2023-03-22T07:17:08.567Z,433.12
2023-03-22T07:18:08.554Z,489.38
2023-03-22T07:19:08.546Z,478.12
2023-03-22T07:20:08.529Z,405.00
2023-03-22T07:21:08.529Z,410.62
2023-03-22T07:22:08.505Z,455.62
2023-03-22T07:23:08.486Z,585.00
2023-03-22T07:24:08.513Z,573.75
2023-03-22T07:25:08.489Z,1215.00
2023-03-22T07:26:08.488Z,1170.00
2023-03-22T07:27:08.473Z,1541.25
2023-03-22T07:28:08.426Z,1456.88
2023-03-22T07:29:08.422Z,815.62
2023-03-22T07:30:09.753Z,984.38
2023-03-22T07:31:09.402Z,1018.12
2023-03-22T07:32:08.481Z,1350.00
2023-03-22T07:33:08.427Z,1209.38
2023-03-22T07:34:08.394Z,911.25
2023-03-22T07:35:08.380Z,759.38
2023-03-22T07:36:08.391Z,635.62
2023-03-22T07:37:08.368Z,753.75
2023-03-22T07:38:08.360Z,1164.38
2023-03-22T07:39:08.345Z,540.00
2023-03-22T07:40:08.378Z,601.88
2023-03-22T07:41:08.291Z,607.50
2023-03-22T07:42:08.293Z,495.00
2023-03-22T07:43:08.292Z,410.62
2023-03-22T07:44:17.694Z,337.50
2023-03-22T07:45:10.275Z,326.25
2023-03-22T07:46:08.322Z,298.12
2023-03-22T07:47:08.230Z,247.50
2023-03-22T07:48:08.291Z,230.62
2023-03-22T07:49:08.271Z,180.00
2023-03-22T07:50:08.233Z,180.00
2023-03-22T07:51:08.241Z,151.88
2023-03-22T07:52:08.200Z,157.50
2023-03-22T07:53:08.161Z,146.25
2023-03-22T07:54:08.202Z,129.38
2023-03-22T07:55:40.573Z,123.75
2023-03-22T07:56:08.863Z,118.12
2023-03-22T07:57:08.160Z,135.00
2023-03-22T07:58:08.423Z,135.00
2023-03-22T07:59:08.309Z,135.00
2023-03-22T08:00:08.134Z,123.75
2023-03-22T08:01:08.247Z,135.00
2023-03-22T08:02:08.247Z,129.38
2023-03-22T08:03:08.369Z,129.38
2023-03-22T08:04:08.083Z,123.75
2023-03-22T08:05:08.041Z,123.75
2023-03-22T08:06:08.132Z,118.12
2023-03-22T08:07:08.106Z,129.38
2023-03-22T08:08:08.061Z,135.00
2023-03-22T08:09:08.065Z,135.00
2023-03-22T08:10:08.083Z,135.00
2023-03-22T08:11:08.040Z,135.00
2023-03-22T08:12:08.041Z,123.75
2023-03-22T08:13:08.157Z,135.00
2023-03-22T08:14:08.066Z,129.38
2023-03-22T08:15:07.985Z,123.75
2023-03-22T08:16:08.072Z,129.38
2023-03-22T08:17:07.955Z,129.38
2023-03-22T08:18:08.972Z,129.38
2023-03-22T08:19:07.949Z,135.00
2023-03-22T08:20:07.940Z,123.75
2023-03-22T08:21:07.917Z,140.62
2023-03-22T08:22:07.926Z,174.38
2023-03-22T08:23:08.028Z,151.88
2023-03-22T08:24:07.916Z,146.25
2023-03-22T08:25:07.897Z,157.50
2023-03-22T08:26:07.950Z,168.75
2023-03-22T08:27:07.862Z,202.50
2023-03-22T08:28:07.852Z,230.62
2023-03-22T08:29:07.986Z,225.00
2023-03-22T08:30:07.869Z,213.75
2023-03-22T08:31:08.330Z,208.12
2023-03-22T08:32:07.936Z,185.62
2023-03-22T08:33:07.795Z,185.62
2023-03-22T08:34:07.790Z,196.88
2023-03-22T08:35:07.856Z,191.25
2023-03-22T08:36:07.785Z,185.62
2023-03-22T08:37:07.808Z,185.62
2023-03-22T08:38:07.765Z,180.00
2023-03-22T08:39:07.711Z,185.62
2023-03-22T08:40:07.795Z,196.88
2023-03-22T08:41:07.764Z,202.50
2023-03-22T08:42:07.729Z,208.12
2023-03-22T08:43:07.813Z,191.25
2023-03-22T08:44:07.727Z,168.75
2023-03-22T08:45:07.629Z,174.38
2023-03-22T08:46:07.691Z,174.38
2023-03-22T08:47:07.661Z,157.50
2023-03-22T08:48:07.760Z,151.88
2023-03-22T08:49:07.621Z,146.25
2023-03-22T08:50:08.455Z,151.88
2023-03-22T08:51:07.921Z,168.75
2023-03-22T08:52:07.615Z,213.75
2023-03-22T08:53:07.677Z,275.62
2023-03-22T08:54:08.277Z,292.50
2023-03-22T08:55:07.649Z,309.38
2023-03-22T08:56:07.629Z,382.50
2023-03-22T08:57:07.556Z,393.75
2023-03-22T08:58:07.623Z,315.00
2023-03-22T08:59:07.571Z,236.25
2023-03-22T09:00:07.518Z,202.50
2023-03-22T09:01:07.687Z,202.50
2023-03-22T09:02:07.659Z,247.50
2023-03-22T09:03:07.503Z,275.62
2023-03-22T09:04:10.155Z,286.88
2023-03-22T09:05:08.464Z,275.62
2023-03-22T09:06:07.558Z,275.62
2023-03-22T09:07:07.414Z,281.25
2023-03-22T09:08:07.526Z,286.88
2023-03-22T09:09:07.594Z,337.50
2023-03-22T09:10:07.433Z,393.75
2023-03-22T09:11:07.434Z,438.75
2023-03-22T09:12:07.386Z,410.62
2023-03-22T09:13:07.463Z,427.50
2023-03-22T09:14:07.418Z,444.38
2023-03-22T09:15:07.887Z,483.75
2023-03-22T09:16:07.432Z,556.88
2023-03-22T09:17:07.377Z,607.50
2023-03-22T09:18:07.369Z,624.38
2023-03-22T09:19:07.341Z,618.75
2023-03-22T09:20:12.888Z,590.62
2023-03-22T09:21:09.351Z,680.62
2023-03-22T09:22:07.267Z,551.25
2023-03-22T09:23:07.317Z,691.88
2023-03-22T09:24:07.317Z,590.62
2023-03-22T09:25:07.225Z,585.00
2023-03-22T09:26:07.269Z,579.38
2023-03-22T09:27:07.274Z,635.62
2023-03-22T09:28:07.334Z,725.62
2023-03-22T09:29:07.228Z,950.62
2023-03-22T09:30:07.218Z,984.38
2023-03-22T09:31:07.237Z,945.00
2023-03-22T09:32:07.164Z,855.00
2023-03-22T09:33:07.180Z,995.62
2023-03-22T09:34:07.210Z,939.38
2023-03-22T09:35:07.208Z,793.12
2023-03-22T09:36:07.137Z,646.88
2023-03-22T09:37:07.081Z,568.12
2023-03-22T09:38:07.145Z,495.00
2023-03-22T09:39:07.138Z,489.38
2023-03-22T09:40:07.151Z,708.75
2023-03-22T09:41:07.112Z,871.88
2023-03-22T09:42:07.094Z,1018.12
2023-03-22T09:43:07.120Z,933.75
2023-03-22T09:44:07.015Z,945.00
2023-03-22T09:45:07.036Z,894.38
2023-03-22T09:46:07.213Z,466.88
2023-03-22T09:47:07.012Z,511.88
2023-03-22T09:48:07.153Z,646.88
2023-03-22T09:49:06.992Z,933.75
2023-03-22T09:50:06.988Z,540.00
2023-03-22T09:51:06.907Z,506.25
2023-03-22T09:52:07.236Z,680.62
2023-03-22T09:53:06.918Z,714.38
2023-03-22T09:54:06.939Z,1552.50
2023-03-22T09:55:06.875Z,826.88
2023-03-22T09:56:06.882Z,1496.25
2023-03-22T09:57:06.878Z,461.25
2023-03-22T09:58:07.222Z,343.12
2023-03-22T09:59:06.873Z,433.12
2023-03-22T10:00:06.896Z,1231.88
2023-03-22T10:01:07.052Z,1350.00
2023-03-22T10:02:07.094Z,540.00
2023-03-22T10:03:06.831Z,433.12
2023-03-22T10:04:06.882Z,455.62
2023-03-22T10:05:06.780Z,495.00
2023-03-22T10:06:06.754Z,793.12
2023-03-22T10:07:06.783Z,500.62
2023-03-22T10:08:06.720Z,1029.38
2023-03-22T10:09:06.742Z,1125.00
2023-03-22T10:10:06.812Z,540.00
2023-03-22T10:11:06.739Z,624.38
2023-03-22T10:12:06.712Z,1462.50
2023-03-22T10:13:06.739Z,1310.62
2023-03-22T10:14:06.664Z,765.00
2023-03-22T10:15:06.671Z,585.00
2023-03-22T10:16:06.704Z,562.50
2023-03-22T10:17:06.617Z,1378.12
2023-03-22T10:18:06.679Z,1023.75
2023-03-22T10:19:06.640Z,742.50
2023-03-22T10:20:06.578Z,618.75
2023-03-22T10:21:06.574Z,573.75
2023-03-22T10:22:06.591Z,585.00
2023-03-22T10:23:06.630Z,939.38
2023-03-22T10:24:06.625Z,703.12
2023-03-22T10:25:06.538Z,691.88
2023-03-22T10:26:06.514Z,1951.88
2023-03-22T10:27:06.475Z,2356.88
2023-03-22T10:28:06.565Z,2143.12
2023-03-22T10:29:06.503Z,2019.38
2023-03-22T10:30:06.518Z,1642.50
2023-03-22T10:31:06.563Z,2115.00
2023-03-22T10:32:06.419Z,1850.62
2023-03-22T10:33:06.441Z,2058.75
2023-03-22T10:34:06.466Z,1951.88
2023-03-22T10:35:06.444Z,793.12
2023-03-22T10:36:06.461Z,765.00
2023-03-22T10:37:06.430Z,2013.75
2023-03-22T10:38:06.455Z,1524.38
2023-03-22T10:39:06.360Z,663.75
2023-03-22T10:40:06.397Z,708.75
2023-03-22T10:41:06.438Z,1170.00
2023-03-22T10:42:06.302Z,697.50
2023-03-22T10:43:06.349Z,967.50
2023-03-22T10:44:06.404Z,832.50
2023-03-22T10:45:06.346Z,630.00
2023-03-22T10:46:06.307Z,810.00
2023-03-22T10:47:06.311Z,826.88
2023-03-22T10:48:06.308Z,877.50
2023-03-22T10:49:06.281Z,900.00
2023-03-22T10:50:06.262Z,759.38
2023-03-22T10:51:06.314Z,691.88
2023-03-22T10:52:06.294Z,646.88
2023-03-22T10:53:06.285Z,675.00
2023-03-22T10:54:06.262Z,556.88
2023-03-22T10:55:06.246Z,753.75
2023-03-22T10:56:06.326Z,635.62
2023-03-22T10:57:06.210Z,562.50
2023-03-22T10:58:06.194Z,652.50
2023-03-22T10:59:06.281Z,675.00
2023-03-22T11:00:06.267Z,545.62
2023-03-22T11:01:06.335Z,472.50
2023-03-22T11:02:06.772Z,450.00
2023-03-22T11:03:06.158Z,478.12
2023-03-22T11:04:06.142Z,500.62
2023-03-22T11:05:06.177Z,759.38
2023-03-22T11:06:06.137Z,562.50
2023-03-22T11:07:06.104Z,585.00
2023-03-22T11:08:06.044Z,590.62
2023-03-22T11:09:06.031Z,978.75
2023-03-22T11:10:06.029Z,573.75
2023-03-22T11:11:05.983Z,984.38
2023-03-22T11:12:06.090Z,984.38
2023-03-22T11:13:06.061Z,916.88
2023-03-22T11:14:05.991Z,545.62
2023-03-22T11:15:05.960Z,551.25
2023-03-22T11:16:06.003Z,973.12
2023-03-22T11:17:05.952Z,534.38
2023-03-22T11:18:05.967Z,495.00
2023-03-22T11:19:05.981Z,843.75
2023-03-22T11:20:07.649Z,832.50
2023-03-22T11:21:06.921Z,585.00
2023-03-22T11:22:05.930Z,523.12
2023-03-22T11:23:05.866Z,624.38
2023-03-22T11:24:05.855Z,646.88
2023-03-22T11:25:05.874Z,495.00
2023-03-22T11:26:05.873Z,421.88
2023-03-22T11:27:05.878Z,618.75
2023-03-22T11:28:06.409Z,461.25
2023-03-22T11:29:05.799Z,405.00
2023-03-22T11:30:05.808Z,376.88
2023-03-22T11:31:06.811Z,399.38
2023-03-22T11:32:05.868Z,399.38
2023-03-22T11:33:05.826Z,393.75
2023-03-22T11:34:05.788Z,421.88
2023-03-22T11:35:06.059Z,461.25
2023-03-22T11:36:05.769Z,506.25
2023-03-22T11:37:05.737Z,523.12
2023-03-22T11:38:05.679Z,461.25
2023-03-22T11:39:05.721Z,427.50
2023-03-22T11:40:05.747Z,455.62
2023-03-22T11:41:05.745Z,455.62
2023-03-22T11:42:05.693Z,483.75
2023-03-22T11:43:05.673Z,483.75
2023-03-22T11:44:05.633Z,466.88
2023-03-22T11:45:05.625Z,742.50
2023-03-22T11:46:05.676Z,483.75
2023-03-22T11:47:05.701Z,433.12
2023-03-22T11:48:05.856Z,405.00
2023-03-22T11:49:05.748Z,433.12
2023-03-22T11:50:05.756Z,461.25
2023-03-22T11:51:05.583Z,489.38
2023-03-22T11:52:05.573Z,444.38
2023-03-22T11:53:05.554Z,399.38
2023-03-22T11:54:05.541Z,382.50
2023-03-22T11:55:05.534Z,399.38
2023-03-22T11:56:05.539Z,444.38
2023-03-22T11:57:05.916Z,652.50
2023-03-22T11:58:05.491Z,781.88
2023-03-22T11:59:05.458Z,714.38
2023-03-22T12:00:06.829Z,562.50
2023-03-22T12:01:05.466Z,523.12
2023-03-22T12:02:07.814Z,506.25
2023-03-22T12:03:07.301Z,483.75
2023-03-22T12:04:05.494Z,495.00
2023-03-22T12:05:05.560Z,585.00
2023-03-22T12:06:05.488Z,849.38
2023-03-22T12:07:05.366Z,973.12
2023-03-22T12:08:05.374Z,613.12
2023-03-22T12:09:05.399Z,568.12
2023-03-22T12:10:05.865Z,1113.75
2023-03-22T12:11:05.355Z,1580.62
2023-03-22T12:12:05.383Z,731.25
2023-03-22T12:13:05.328Z,680.62
2023-03-22T12:14:05.292Z,1631.25
2023-03-22T12:15:05.335Z,933.75
2023-03-22T12:16:05.328Z,1575.00
2023-03-22T12:17:05.260Z,1912.50
2023-03-22T12:18:07.695Z,1861.88
2023-03-22T12:19:06.271Z,1890.00
2023-03-22T12:20:05.269Z,1389.38
2023-03-22T12:21:05.248Z,990.00
2023-03-22T12:22:05.239Z,978.75
2023-03-22T12:23:05.219Z,1096.88
2023-03-22T12:24:05.219Z,1411.88
2023-03-22T12:25:05.234Z,888.75
2023-03-22T12:26:05.210Z,1473.75
2023-03-22T12:27:05.252Z,736.88
2023-03-22T12:28:05.265Z,984.38
2023-03-22T12:29:05.187Z,1018.12
2023-03-22T12:30:05.135Z,1276.88
2023-03-22T12:31:05.135Z,1766.25
2023-03-22T12:32:05.142Z,2261.25
2023-03-22T12:33:05.116Z,2131.88
2023-03-22T12:34:05.491Z,1029.38
2023-03-22T12:35:16.742Z,708.75
2023-03-22T12:36:07.150Z,562.50
2023-03-22T12:37:05.096Z,523.12
2023-03-22T12:38:05.076Z,495.00
2023-03-22T12:39:05.046Z,506.25
2023-03-22T12:40:05.066Z,523.12
2023-03-22T12:41:05.062Z,534.38
2023-03-22T12:42:05.036Z,528.75
2023-03-22T12:43:04.990Z,568.12
2023-03-22T12:44:04.998Z,613.12
2023-03-22T12:45:05.854Z,556.88
2023-03-22T12:46:06.025Z,545.62
2023-03-22T12:47:05.059Z,545.62
2023-03-22T12:48:05.053Z,545.62
2023-03-22T12:49:04.987Z,607.50